Time;durP1;ratioP1;P1;durP2;ratioP2;P2;SDS_P1;SDS_P2;PMS_P1;PMS_P2;Temp;Humidity;BMP_temperature;BMP_pressure;BME280_temperature;BME280_humidity;BME280_pressure;Samples;Min_cycle;Max_cycle;Signal;HPM_P1;HPM_P2
2023/10/06 00:03:06;;;;;;;17.50;10.73;;;13.80;99.90;;;;;;5076093;28;20448;-47
2023/10/06 00:05:35;;;;;;;15.20;10.60;;;13.90;99.90;;;;;;5076177;28;20766;-47
2023/10/06 00:08:04;;;;;;;19.77;11.40;;;13.80;99.90;;;;;;5075950;28;20416;-46
2023/10/06 00:10:32;;;;;;;22.50;11.90;;;13.80;99.90;;;;;;5076325;28;20515;-47
2023/10/06 00:13:05;;;;;;;18.17;10.87;;;13.80;99.90;;;;;;5076079;28;20443;-47
2023/10/06 00:15:43;;;;;;;26.50;13.40;;;13.80;99.90;;;;;;5076380;28;20413;-46
2023/10/06 00:18:16;;;;;;;24.03;12.20;;;13.70;99.90;;;;;;5074552;28;20416;-46
2023/10/06 00:20:48;;;;;;;23.43;13.23;;;13.70;99.90;;;;;;5076233;28;20884;-47
2023/10/06 00:23:14;;;;;;;19.50;12.80;;;13.70;99.90;;;;;;5076076;28;20450;-47
2023/10/06 00:25:43;;;;;;;21.20;12.50;;;13.70;99.90;;;;;;5075616;28;20535;-46
2023/10/06 00:28:19;;;;;;;18.57;13.23;;;13.70;99.90;;;;;;5075432;28;20918;-47
2023/10/06 00:30:47;;;;;;;26.10;13.73;;;13.80;99.90;;;;;;5076050;28;20411;-46
2023/10/06 00:33:14;;;;;;;20.70;13.73;;;13.80;99.90;;;;;;5075542;28;20429;-47
2023/10/06 00:35:41;;;;;;;21.43;13.33;;;13.80;99.90;;;;;;5075082;28;20409;-47
2023/10/06 00:38:16;;;;;;;30.00;14.43;;;13.80;99.90;;;;;;5075304;28;20422;-47
2023/10/06 00:40:51;;;;;;;23.53;12.37;;;13.90;99.90;;;;;;5075175;28;20489;-46
2023/10/06 00:43:34;;;;;;;22.23;12.63;;;13.90;99.90;;;;;;5075372;28;20908;-46
2023/10/06 00:46:00;;;;;;;26.20;13.30;;;13.80;99.90;;;;;;5075624;28;20412;-47
2023/10/06 00:48:29;;;;;;;26.50;13.63;;;13.90;99.90;;;;;;5075440;28;20921;-46
2023/10/06 00:50:57;;;;;;;21.70;13.40;;;13.80;99.90;;;;;;5075291;28;20417;-47
2023/10/06 00:53:30;;;;;;;26.97;13.70;;;13.70;99.90;;;;;;5075192;28;20416;-46
2023/10/06 00:55:56;;;;;;;27.90;15.17;;;13.80;99.90;;;;;;5075021;28;20412;-47
2023/10/06 00:58:22;;;;;;;19.83;13.80;;;13.80;99.90;;;;;;5074753;28;20430;-46
2023/10/06 01:00:48;;;;;;;26.17;14.27;;;13.70;99.90;;;;;;5074682;28;20425;-46
2023/10/06 01:03:16;;;;;;;27.80;14.50;;;13.70;99.90;;;;;;5074824;28;20454;-47
2023/10/06 01:05:45;;;;;;;27.60;14.60;;;13.60;99.90;;;;;;5075018;28;20178;-46
2023/10/06 01:08:12;;;;;;;30.77;15.43;;;13.70;99.90;;;;;;5075009;28;20478;-46
2023/10/06 01:10:38;;;;;;;23.20;14.27;;;13.70;99.90;;;;;;5074817;28;20428;-46
2023/10/06 01:13:12;;;;;;;23.17;14.83;;;13.70;99.90;;;;;;5074593;28;20419;-46
2023/10/06 01:15:49;;;;;;;29.53;14.90;;;13.70;99.90;;;;;;5075032;28;20532;-46
2023/10/06 01:18:20;;;;;;;25.63;14.97;;;13.60;99.90;;;;;;5074859;28;20425;-47
2023/10/06 01:20:48;;;;;;;22.80;14.57;;;13.70;99.90;;;;;;5074923;28;20420;-47
2023/10/06 01:23:26;;;;;;;25.93;14.33;;;13.60;99.90;;;;;;5074528;28;20440;-46
2023/10/06 01:25:55;;;;;;;22.50;15.30;;;13.60;99.90;;;;;;5074650;28;20438;-46
2023/10/06 01:28:23;;;;;;;23.10;15.80;;;13.70;99.90;;;;;;5074515;28;20419;-47
2023/10/06 01:30:52;;;;;;;31.00;16.27;;;13.60;99.90;;;;;;5074349;28;20432;-46
2023/10/06 01:33:17;;;;;;;34.43;16.00;;;13.60;99.90;;;;;;5074232;28;20918;-46
2023/10/06 01:35:45;;;;;;;27.03;14.83;;;13.60;99.90;;;;;;5074270;28;20424;-47
2023/10/06 01:38:22;;;;;;;26.00;16.33;;;13.60;99.90;;;;;;5073938;28;20647;-46
2023/10/06 01:40:50;;;;;;;36.83;17.43;;;13.50;99.90;;;;;;5074630;28;20403;-46
2023/10/06 01:43:29;;;;;;;35.80;16.37;;;13.50;99.90;;;;;;5074469;28;20419;-46
2023/10/06 01:45:55;;;;;;;29.90;16.27;;;13.60;99.90;;;;;;5074343;28;20423;-47
2023/10/06 01:50:48;;;;;;;28.57;16.80;;;13.60;99.90;;;;;;5073951;28;20181;-48
2023/10/06 01:53:18;;;;;;;35.97;16.10;;;13.60;99.90;;;;;;5074073;28;20186;-46
2023/10/06 01:55:49;;;;;;;33.00;16.90;;;13.60;99.90;;;;;;5074122;28;20428;-46
2023/10/06 01:58:15;;;;;;;29.93;17.07;;;13.60;99.90;;;;;;5073736;28;20412;-47
2023/10/06 02:00:40;;;;;;;27.90;15.60;;;13.50;99.90;;;;;;5073775;28;20479;-47
2023/10/06 02:03:10;;;;;;;32.63;18.20;;;13.50;99.90;;;;;;5073886;28;20444;-46
2023/10/06 02:05:38;;;;;;;33.77;17.10;;;13.50;99.90;;;;;;5074357;28;20216;-46
2023/10/06 02:08:14;;;;;;;31.87;17.07;;;13.50;99.90;;;;;;5074033;28;20507;-47
2023/10/06 02:10:42;;;;;;;24.63;15.47;;;13.50;99.90;;;;;;5074046;28;20510;-47
2023/10/06 02:13:08;;;;;;;29.27;15.70;;;13.50;99.90;;;;;;5073882;28;20473;-46
2023/10/06 02:15:34;;;;;;;30.43;16.40;;;13.60;99.90;;;;;;5073552;28;20886;-47
2023/10/06 02:17:59;;;;;;;32.20;16.87;;;13.50;99.90;;;;;;5073766;28;20184;-47
2023/10/06 02:22:52;;;;;;;29.97;15.87;;;13.50;99.90;;;;;;5073748;28;20806;-47
2023/10/06 02:25:18;;;;;;;27.30;15.90;;;13.50;99.90;;;;;;5073363;28;20240;-46
2023/10/06 02:27:46;;;;;;;32.13;16.90;;;13.60;99.90;;;;;;5073673;28;20952;-47
2023/10/06 02:30:13;;;;;;;28.20;15.70;;;13.50;99.90;;;;;;5073630;28;20466;-47
2023/10/06 02:32:38;;;;;;;26.17;16.37;;;13.50;99.90;;;;;;5073692;28;20512;-46
2023/10/06 02:35:06;;;;;;;29.60;15.67;;;13.50;99.90;;;;;;5073362;28;20499;-46
2023/10/06 02:37:32;;;;;;;32.07;16.10;;;13.60;99.90;;;;;;5073588;28;20181;-47
2023/10/06 02:39:58;;;;;;;24.23;15.50;;;13.50;99.90;;;;;;5073634;28;20911;-47
2023/10/06 02:42:25;;;;;;;28.43;16.03;;;13.50;99.90;;;;;;5077625;28;20565;-47
2023/10/06 02:44:51;;;;;;;23.60;15.60;;;13.40;99.90;;;;;;5077911;28;20243;-46
2023/10/06 02:47:17;;;;;;;24.60;14.90;;;13.50;99.90;;;;;;5077828;28;20446;-47
2023/10/06 02:49:55;;;;;;;24.37;14.47;;;13.50;99.90;;;;;;5077073;28;20946;-47
2023/10/06 02:52:29;;;;;;;24.23;14.23;;;13.50;99.90;;;;;;5077405;28;20894;-48
2023/10/06 02:57:35;;;;;;;21.43;14.13;;;13.50;99.90;;;;;;5077596;28;20399;-47
2023/10/06 03:03:11;;;;;;;20.37;13.70;;;13.50;99.90;;;;;;5054120;28;20432;-47
2023/10/06 03:05:39;;;;;;;26.43;13.10;;;13.50;99.90;;;;;;5077632;28;20414;-46
2023/10/06 03:08:11;;;;;;;29.87;14.03;;;13.50;99.90;;;;;;5077280;28;20426;-47
2023/10/06 03:10:44;;;;;;;28.03;13.27;;;13.50;99.90;;;;;;5077072;28;20435;-46
2023/10/06 03:13:31;;;;;;;22.23;12.87;;;13.50;99.90;;;;;;5077263;28;20407;-47
2023/10/06 03:15:57;;;;;;;21.23;13.23;;;13.50;99.90;;;;;;5077076;28;20546;-47
2023/10/06 03:18:23;;;;;;;28.50;14.27;;;13.60;99.90;;;;;;5077219;28;20845;-46
2023/10/06 03:20:49;;;;;;;28.40;13.87;;;13.70;99.90;;;;;;5077037;28;20235;-46
2023/10/06 03:26:03;;;;;;;28.37;13.90;;;13.60;99.90;;;;;;5077140;28;20410;-47
2023/10/06 03:28:38;;;;;;;34.20;15.00;;;13.50;99.90;;;;;;5076955;28;20459;-47
2023/10/06 03:33:48;;;;;;;23.00;15.30;;;13.60;99.90;;;;;;5076795;28;20408;-48
2023/10/06 03:36:16;;;;;;;25.63;15.90;;;13.60;99.90;;;;;;5076611;28;20438;-47
2023/10/06 03:38:52;;;;;;;28.73;16.20;;;13.60;99.90;;;;;;5076511;28;20439;-47
2023/10/06 03:41:19;;;;;;;30.93;15.57;;;13.50;99.90;;;;;;5076433;28;20403;-48
2023/10/06 03:46:11;;;;;;;26.20;16.07;;;13.60;97.90;;;;;;5076591;28;20412;-47
2023/10/06 03:48:38;;;;;;;32.10;16.07;;;13.60;75.10;;;;;;5076310;28;20452;-47
2023/10/06 03:51:05;;;;;;;28.87;15.90;;;13.60;34.10;;;;;;5075809;28;20424;-47
2023/10/06 03:53:31;;;;;;;27.37;16.00;;;13.70;14.70;;;;;;5076285;28;20448;-47
2023/10/06 03:55:57;;;;;;;26.30;16.77;;;13.70;6.10;;;;;;5076288;28;20450;-47
2023/10/06 03:58:30;;;;;;;27.23;16.10;;;13.70;1.00;;;;;;5076336;28;20513;-47
2023/10/06 04:00:56;;;;;;;25.73;16.50;;;13.70;1.00;;;;;;5076366;28;20756;-47
2023/10/06 04:03:21;;;;;;;32.70;18.47;;;13.60;1.00;;;;;;5076121;28;20430;-47
2023/10/06 04:05:48;;;;;;;29.23;16.70;;;13.60;1.00;;;;;;5076123;28;20169;-47
2023/10/06 04:08:16;;;;;;;32.93;17.57;;;13.60;1.00;;;;;;5076200;28;20265;-47
2023/10/06 04:10:43;;;;;;;26.87;17.33;;;13.60;1.00;;;;;;5076304;28;20416;-47
2023/10/06 04:13:09;;;;;;;28.57;16.40;;;13.60;1.00;;;;;;5076185;28;20498;-47
2023/10/06 04:15:38;;;;;;;29.37;17.70;;;13.70;1.00;;;;;;5075938;28;20475;-47
2023/10/06 04:18:11;;;;;;;24.00;16.57;;;13.70;1.00;;;;;;5076106;28;20446;-48
2023/10/06 04:20:43;;;;;;;29.10;17.57;;;13.70;1.00;;;;;;5076346;28;20480;-46
2023/10/06 04:23:19;;;;;;;29.97;18.57;;;13.60;1.00;;;;;;5075658;28;20765;-47
2023/10/06 04:25:47;;;;;;;30.70;18.30;;;13.70;1.00;;;;;;5075787;28;20431;-47
2023/10/06 04:28:14;;;;;;;28.93;17.67;;;13.60;1.00;;;;;;5075230;28;20415;-47
2023/10/06 04:30:42;;;;;;;39.60;17.63;;;13.60;1.00;;;;;;5075075;28;20938;-47
2023/10/06 04:33:10;;;;;;;25.77;16.90;;;13.70;1.00;;;;;;5074917;28;20423;-47
2023/10/06 04:35:47;;;;;;;27.30;17.10;;;13.70;1.00;;;;;;5075569;28;20406;-47
2023/10/06 04:38:13;;;;;;;24.37;15.70;;;13.60;1.00;;;;;;5076078;28;20452;-48
2023/10/06 04:40:42;;;;;;;24.20;15.40;;;13.70;1.00;;;;;;5076250;28;20427;-48
2023/10/06 04:43:08;;;;;;;25.80;16.67;;;13.70;1.00;;;;;;5075882;28;20420;-47
2023/10/06 04:45:33;;;;;;;24.90;16.13;;;13.60;1.00;;;;;;5077117;28;20415;-47
2023/10/06 04:48:03;;;;;;;22.37;15.50;;;13.70;1.00;;;;;;5075563;28;20183;-48
2023/10/06 04:50:29;;;;;;;29.07;16.20;;;13.70;1.00;;;;;;5075026;28;20307;-46
2023/10/06 04:52:56;;;;;;;32.50;16.07;;;13.70;1.00;;;;;;5075237;28;20953;-47
2023/10/06 04:55:22;;;;;;;23.13;14.90;;;13.70;1.00;;;;;;5075558;28;20469;-47
2023/10/06 04:57:48;;;;;;;25.20;15.77;;;13.60;1.00;;;;;;5076166;28;20821;-49
2023/10/06 05:00:18;;;;;;;23.93;14.93;;;13.60;1.00;;;;;;5076267;28;20482;-48
2023/10/06 05:02:47;;;;;;;29.53;15.80;;;13.50;1.00;;;;;;5077229;28;20188;-48
2023/10/06 05:05:19;;;;;;;23.30;14.63;;;13.50;1.00;;;;;;5076766;28;20432;-49
2023/10/06 05:07:46;;;;;;;27.53;15.00;;;13.50;7.10;;;;;;5077725;28;20427;-47
2023/10/06 05:10:11;;;;;;;25.50;14.57;;;13.60;1.00;;;;;;5078017;28;21053;-47
2023/10/06 05:12:37;;;;;;;26.20;14.00;;;13.60;1.00;;;;;;5075055;28;20518;-47
2023/10/06 05:15:15;;;;;;;22.50;14.50;;;13.60;1.00;;;;;;5074946;28;20187;-48
2023/10/06 05:17:42;;;;;;;24.83;14.03;;;13.50;1.00;;;;;;5074901;28;20184;-47
2023/10/06 05:20:19;;;;;;;22.63;13.53;;;13.50;1.00;;;;;;5074294;28;20430;-47
2023/10/06 05:22:45;;;;;;;21.00;13.30;;;13.60;1.00;;;;;;5075057;28;20182;-49
2023/10/06 05:25:13;;;;;;;20.53;13.20;;;13.50;1.00;;;;;;5074162;28;20469;-47
2023/10/06 05:27:38;;;;;;;21.17;12.47;;;13.60;1.00;;;;;;5074315;28;20509;-47
2023/10/06 05:30:06;;;;;;;18.80;12.60;;;13.60;1.00;;;;;;5074246;28;20509;-48
2023/10/06 05:32:32;;;;;;;24.40;11.57;;;13.60;1.00;;;;;;5074443;28;20238;-47
2023/10/06 05:34:58;;;;;;;27.80;13.00;;;13.60;1.00;;;;;;5074014;28;20431;-47
2023/10/06 05:37:23;;;;;;;23.50;12.77;;;13.60;1.00;;;;;;5074613;28;20416;-47
2023/10/06 05:39:49;;;;;;;23.83;12.10;;;13.60;1.00;;;;;;5074379;28;20624;-47
2023/10/06 05:42:15;;;;;;;24.20;12.43;;;13.50;1.00;;;;;;5074154;28;20182;-47
2023/10/06 05:44:42;;;;;;;17.73;12.70;;;13.50;1.00;;;;;;5073938;28;20185;-47
2023/10/06 05:47:08;;;;;;;28.93;10.70;;;13.50;1.00;;;;;;5074522;28;20185;-48
2023/10/06 05:49:35;;;;;;;18.33;10.97;;;13.60;1.00;;;;;;5074266;28;20495;-47
2023/10/06 05:52:03;;;;;;;27.17;11.33;;;13.60;1.00;;;;;;5074030;28;20476;-49
2023/10/06 05:54:29;;;;;;;28.03;10.20;;;13.60;1.00;;;;;;5074351;28;20458;-48
2023/10/06 05:56:55;;;;;;;23.40;11.07;;;13.70;1.00;;;;;;5074123;28;20411;-45
2023/10/06 05:59:21;;;;;;;20.60;10.27;;;13.70;1.00;;;;;;5074362;28;20465;-47
2023/10/06 06:01:56;;;;;;;18.03;9.80;;;13.60;1.00;;;;;;5073794;28;20266;-47
2023/10/06 06:04:27;;;;;;;19.50;10.00;;;13.60;1.00;;;;;;5074344;28;20807;-47
2023/10/06 06:06:56;;;;;;;17.13;9.87;;;13.60;1.00;;;;;;5073785;28;20450;-47
2023/10/06 06:09:23;;;;;;;18.37;9.30;;;13.70;1.00;;;;;;5073913;28;20444;-48
2023/10/06 06:11:48;;;;;;;18.90;10.00;;;13.70;1.00;;;;;;5073628;28;20514;-47
2023/10/06 06:14:14;;;;;;;17.90;9.77;;;13.80;99.90;;;;;;5073670;28;20810;-47
2023/10/06 06:16:44;;;;;;;21.10;9.10;;;13.80;99.90;;;;;;5073912;28;20234;-47
2023/10/06 06:19:11;;;;;;;16.73;10.60;;;13.80;99.90;;;;;;5073770;28;20172;-47
2023/10/06 06:21:38;;;;;;;16.73;9.97;;;13.80;99.90;;;;;;5073506;28;20436;-48
2023/10/06 06:24:08;;;;;;;20.40;10.30;;;13.80;99.90;;;;;;5073509;28;20556;-48
2023/10/06 06:26:37;;;;;;;17.70;9.50;;;13.80;1.00;;;;;;5074046;28;20419;-46
2023/10/06 06:29:08;;;;;;;19.77;9.50;;;13.80;1.00;;;;;;5073554;28;20537;-48
2023/10/06 06:31:34;;;;;;;16.20;9.23;;;13.80;99.90;;;;;;5073694;28;20807;-47
2023/10/06 06:34:04;;;;;;;17.13;9.83;;;13.80;99.90;;;;;;5073266;28;20420;-47
2023/10/06 06:36:31;;;;;;;18.27;9.47;;;13.80;99.90;;;;;;5073456;28;20412;-48
2023/10/06 06:39:03;;;;;;;19.20;9.97;;;13.70;1.00;;;;;;5073157;28;20469;-48
2023/10/06 06:41:28;;;;;;;16.10;9.90;;;13.60;1.00;;;;;;5073201;28;20418;-46
2023/10/06 06:44:01;;;;;;;20.23;10.30;;;13.70;1.00;;;;;;5073551;28;20749;-47
2023/10/06 06:46:26;;;;;;;15.27;9.37;;;13.70;1.00;;;;;;5073601;28;20169;-47
2023/10/06 06:48:53;;;;;;;19.27;10.13;;;13.70;1.00;;;;;;5073107;28;20456;-48
2023/10/06 06:51:20;;;;;;;19.70;9.87;;;13.70;1.00;;;;;;5073309;28;20195;-47
2023/10/06 06:53:47;;;;;;;19.23;10.47;;;13.70;1.00;;;;;;5073312;28;20443;-47
2023/10/06 06:56:12;;;;;;;17.93;10.00;;;13.70;1.00;;;;;;5073215;28;20982;-45
2023/10/06 06:58:38;;;;;;;19.23;8.97;;;13.70;1.00;;;;;;5073172;28;20427;-46
2023/10/06 07:01:07;;;;;;;15.67;8.83;;;13.70;1.00;;;;;;5073626;28;20276;-46
2023/10/06 07:03:32;;;;;;;18.80;9.03;;;13.70;1.00;;;;;;5073760;28;20208;-46
2023/10/06 07:05:58;;;;;;;18.20;9.53;;;13.80;1.00;;;;;;5073329;28;20412;-46
2023/10/06 07:08:24;;;;;;;16.10;9.10;;;13.70;99.90;;;;;;5073578;28;20178;-46
2023/10/06 07:10:53;;;;;;;16.73;9.90;;;13.70;1.00;;;;;;5073428;28;20189;-46
2023/10/06 07:13:22;;;;;;;17.53;9.60;;;13.70;1.00;;;;;;5073569;28;20316;-46
2023/10/06 07:15:49;;;;;;;23.40;9.97;;;13.70;1.00;;;;;;5073404;28;20522;-47
2023/10/06 07:18:15;;;;;;;20.53;9.47;;;13.70;1.00;;;;;;5073236;28;20491;-47
2023/10/06 07:20:40;;;;;;;22.27;9.53;;;13.70;1.00;;;;;;5073308;28;20439;-46
2023/10/06 07:23:06;;;;;;;20.50;9.80;;;13.70;1.00;;;;;;5073096;28;20193;-47
2023/10/06 07:25:32;;;;;;;17.40;8.93;;;13.70;1.00;;;;;;5072358;28;20238;-46
2023/10/06 07:27:59;;;;;;;19.73;10.53;;;13.70;1.00;;;;;;5075538;28;20185;-46
2023/10/06 07:30:27;;;;;;;14.70;9.03;;;13.70;1.00;;;;;;5076904;28;20213;-46
2023/10/06 07:32:54;;;;;;;28.53;9.47;;;13.80;1.00;;;;;;5095505;28;20458;-46
2023/10/06 07:35:26;;;;;;;19.73;10.13;;;13.80;1.00;;;;;;5096908;28;20419;-46
2023/10/06 07:37:52;;;;;;;21.87;9.73;;;13.70;1.00;;;;;;5096902;28;20410;-47
2023/10/06 07:40:21;;;;;;;15.27;9.90;;;13.70;1.00;;;;;;5096887;28;20419;-46
2023/10/06 07:42:49;;;;;;;18.17;9.50;;;13.80;1.00;;;;;;5096959;28;20967;-47
2023/10/06 07:45:16;;;;;;;15.60;10.70;;;13.80;1.00;;;;;;5097003;28;20423;-47
2023/10/06 07:47:42;;;;;;;18.60;9.70;;;13.80;1.00;;;;;;5096653;28;20776;-47
2023/10/06 07:50:09;;;;;;;17.47;9.60;;;13.80;1.00;;;;;;5096249;28;20827;-47
2023/10/06 07:52:36;;;;;;;12.97;9.23;;;13.90;1.00;;;;;;5096525;28;20423;-47
2023/10/06 07:55:06;;;;;;;15.73;10.30;;;13.90;1.00;;;;;;5096576;28;20430;-47
2023/10/06 07:57:33;;;;;;;17.87;8.70;;;13.90;1.00;;;;;;5096660;28;20416;-46
2023/10/06 08:00:06;;;;;;;13.67;8.60;;;13.90;1.00;;;;;;5096481;28;20449;-46
2023/10/06 08:02:39;;;;;;;17.73;8.83;;;13.90;1.00;;;;;;5096350;28;20404;-46
2023/10/06 08:05:06;;;;;;;12.30;8.33;;;13.90;1.00;;;;;;5096655;28;20431;-47
2023/10/06 08:07:33;;;;;;;16.23;9.13;;;14.00;99.90;;;;;;5096131;28;20437;-46
2023/10/06 08:09:59;;;;;;;20.97;9.07;;;14.00;99.90;;;;;;5096137;28;20466;-46
2023/10/06 08:12:27;;;;;;;17.67;8.23;;;14.00;99.90;;;;;;5096213;28;20419;-46
2023/10/06 08:14:52;;;;;;;14.10;8.50;;;14.10;99.90;;;;;;5096229;28;20407;-46
2023/10/06 08:17:21;;;;;;;16.40;8.33;;;14.10;99.90;;;;;;5096183;28;20461;-47
2023/10/06 08:19:47;;;;;;;21.83;9.37;;;14.20;99.90;;;;;;5096389;28;20186;-46
2023/10/06 08:22:14;;;;;;;17.90;9.00;;;14.10;99.90;;;;;;5096330;28;20411;-46
2023/10/06 08:24:39;;;;;;;15.10;8.20;;;14.20;99.90;;;;;;5096047;28;20241;-46
2023/10/06 08:27:07;;;;;;;15.33;8.30;;;14.20;99.90;;;;;;5095731;28;20472;-47
2023/10/06 08:29:33;;;;;;;16.77;8.77;;;14.20;99.90;;;;;;5096634;28;20296;-47
2023/10/06 08:31:59;;;;;;;15.90;8.47;;;14.20;99.90;;;;;;5096799;28;20485;-47
2023/10/06 08:34:27;;;;;;;16.67;9.13;;;14.20;1.00;;;;;;5096179;28;20188;-47
2023/10/06 08:36:53;;;;;;;18.73;8.60;;;14.20;99.90;;;;;;5096130;28;20414;-47
2023/10/06 08:39:20;;;;;;;17.50;8.87;;;14.20;99.90;;;;;;5094752;28;20435;-47
2023/10/06 08:41:49;;;;;;;20.90;9.63;;;14.20;99.90;;;;;;5096029;28;20192;-47
2023/10/06 08:44:19;;;;;;;15.77;8.30;;;14.20;99.90;;;;;;5095748;28;20426;-47
2023/10/06 08:46:44;;;;;;;16.93;9.20;;;14.30;99.90;;;;;;5095705;28;20412;-47
2023/10/06 08:49:11;;;;;;;24.53;8.57;;;14.30;99.90;;;;;;5095528;28;20457;-47
2023/10/06 08:51:39;;;;;;;16.77;8.53;;;14.30;99.90;;;;;;5095332;28;20188;-47
2023/10/06 08:54:07;;;;;;;14.47;9.27;;;14.30;99.90;;;;;;5095124;28;20903;-48
2023/10/06 08:56:34;;;;;;;17.87;8.40;;;14.30;1.00;;;;;;5095536;28;20426;-48
2023/10/06 08:59:00;;;;;;;13.83;7.93;;;14.50;99.90;;;;;;5095175;28;20422;-47
2023/10/06 09:01:29;;;;;;;14.90;8.40;;;14.60;99.90;;;;;;5095072;28;20419;-48
2023/10/06 09:04:01;;;;;;;15.37;7.50;;;14.60;99.90;;;;;;5094012;28;20827;-47
2023/10/06 09:06:27;;;;;;;13.10;8.30;;;14.60;90.10;;;;;;5095265;28;20416;-47
2023/10/06 09:08:52;;;;;;;14.60;7.40;;;14.60;59.00;;;;;;5095026;28;20554;-48
2023/10/06 09:11:35;;;;;;;15.70;8.53;;;14.50;99.90;;;;;;5094825;28;20184;-47
2023/10/06 09:14:07;;;;;;;15.10;8.30;;;14.50;99.90;;;;;;5094735;28;20594;-48
2023/10/06 09:16:57;;;;;;;17.93;8.60;;;14.50;99.90;;;;;;5094700;28;20454;-47
2023/10/06 09:19:23;;;;;;;19.60;8.30;;;14.50;94.60;;;;;;5094962;28;20484;-47
2023/10/06 09:22:02;;;;;;;14.17;7.80;;;14.60;99.40;;;;;;5094587;28;20454;-47
2023/10/06 09:24:29;;;;;;;11.57;7.27;;;14.60;51.40;;;;;;5094429;28;20785;-47
2023/10/06 09:26:56;;;;;;;18.53;7.33;;;14.70;1.00;;;;;;5094453;28;20506;-47
2023/10/06 09:29:36;;;;;;;15.60;7.00;;;14.70;13.70;;;;;;5094852;28;20862;-47
2023/10/06 09:32:20;;;;;;;16.27;7.80;;;14.70;1.00;;;;;;5094685;28;20752;-47
2023/10/06 09:34:45;;;;;;;16.83;7.73;;;14.70;1.00;;;;;;5094723;28;20486;-47
2023/10/06 09:37:20;;;;;;;12.53;6.63;;;14.70;1.00;;;;;;5094609;28;20847;-48
2023/10/06 09:40:10;;;;;;;15.23;7.97;;;14.70;35.50;;;;;;5095006;28;20161;-48
2023/10/06 09:42:36;;;;;;;15.20;7.87;;;14.70;39.60;;;;;;5094915;28;20415;-47
2023/10/06 09:45:07;;;;;;;13.50;7.57;;;14.70;99.90;;;;;;5094667;28;20404;-47
2023/10/06 09:47:40;;;;;;;15.40;7.23;;;14.70;1.00;;;;;;5094497;28;20185;-47
2023/10/06 09:50:07;;;;;;;17.10;8.53;;;14.80;1.00;;;;;;5094238;28;20546;-47
2023/10/06 09:52:34;;;;;;;11.53;7.63;;;14.80;33.00;;;;;;5094294;28;20826;-48
2023/10/06 09:55:04;;;;;;;13.10;7.07;;;14.80;99.90;;;;;;5094450;28;20504;-47
2023/10/06 09:57:32;;;;;;;20.50;7.80;;;14.80;99.90;;;;;;5094527;28;20515;-48
2023/10/06 10:00:00;;;;;;;12.13;7.30;;;14.90;99.90;;;;;;5094208;28;20415;-46
2023/10/06 10:02:28;;;;;;;11.87;7.90;;;14.90;99.90;;;;;;5094646;28;20429;-47
2023/10/06 10:04:54;;;;;;;15.97;7.07;;;14.90;99.90;;;;;;5094317;28;20755;-47
2023/10/06 10:07:23;;;;;;;17.50;7.07;;;15.00;99.90;;;;;;5094419;28;20411;-47
2023/10/06 10:09:48;;;;;;;17.07;8.60;;;15.00;99.90;;;;;;5093719;28;20946;-48
2023/10/06 10:12:38;;;;;;;16.90;8.40;;;14.90;99.90;;;;;;5093913;28;20450;-47
2023/10/06 10:15:19;;;;;;;12.93;7.33;;;14.90;99.90;;;;;;5093848;28;20173;-47
2023/10/06 10:18:14;;;;;;;14.50;8.97;;;14.80;1.00;;;;;;5093852;28;20549;-46
2023/10/06 10:20:40;;;;;;;17.43;8.93;;;14.70;99.90;;;;;;5094498;28;20423;-46
2023/10/06 10:23:06;;;;;;;19.13;9.60;;;14.60;76.60;;;;;;5093736;28;20858;-47
2023/10/06 10:25:36;;;;;;;15.90;8.83;;;14.50;1.00;;;;;;5093600;28;20475;-47
2023/10/06 10:28:16;;;;;;;14.43;8.53;;;14.50;99.90;;;;;;5093521;28;20841;-46
2023/10/06 10:31:17;;;;;;;14.20;8.70;;;14.50;1.00;;;;;;5093252;28;20463;-48
2023/10/06 10:33:45;;;;;;;12.33;8.40;;;14.40;99.90;;;;;;5071656;28;20467;-46
2023/10/06 10:36:17;;;;;;;16.80;10.20;;;14.30;6.80;;;;;;5093859;28;20419;-46
2023/10/06 10:38:43;;;;;;;17.17;7.97;;;14.30;99.90;;;;;;5093650;28;20538;-46
2023/10/06 10:41:10;;;;;;;17.50;9.00;;;14.20;1.00;;;;;;5093193;28;20419;-46
2023/10/06 10:43:45;;;;;;;15.80;9.20;;;14.20;1.00;;;;;;5093367;28;20412;-47
2023/10/06 10:46:13;;;;;;;13.23;8.73;;;14.20;1.00;;;;;;5093531;28;20411;-46
2023/10/06 10:48:47;;;;;;;19.93;10.27;;;14.20;50.20;;;;;;5093368;28;20453;-47
2023/10/06 10:51:13;;;;;;;17.70;9.33;;;14.20;19.70;;;;;;5093398;28;20419;-47
2023/10/06 10:53:49;;;;;;;17.53;9.40;;;14.20;72.30;;;;;;5093930;28;20416;-47
2023/10/06 10:56:29;;;;;;;16.90;10.10;;;14.10;99.90;;;;;;5094256;28;20452;-46
2023/10/06 10:58:55;;;;;;;15.23;9.60;;;14.10;99.90;;;;;;5093990;28;20408;-46
2023/10/06 11:01:42;;;;;;;14.50;9.83;;;14.20;99.90;;;;;;5094272;28;20481;-46
2023/10/06 11:04:13;;;;;;;15.63;9.30;;;14.20;99.90;;;;;;5098140;28;20414;-47
2023/10/06 11:06:39;;;;;;;15.90;9.60;;;14.30;99.90;;;;;;5098520;28;20437;-46
2023/10/06 11:09:22;;;;;;;14.37;9.50;;;14.30;99.90;;;;;;5097630;28;20466;-46
2023/10/06 11:11:48;;;;;;;17.23;9.97;;;14.30;99.80;;;;;;5098428;28;20505;-48
2023/10/06 11:14:14;;;;;;;17.13;10.03;;;14.30;99.90;;;;;;5098307;28;20867;-46
2023/10/06 11:16:47;;;;;;;16.47;9.70;;;14.40;42.80;;;;;;5097859;28;20226;-46
2023/10/06 11:19:16;;;;;;;14.53;9.20;;;14.50;49.00;;;;;;5098234;28;20247;-46
2023/10/06 11:21:49;;;;;;;16.00;10.17;;;14.50;1.00;;;;;;5098340;28;20907;-46
2023/10/06 11:24:25;;;;;;;16.17;10.70;;;14.50;1.00;;;;;;5097373;28;20470;-45
2023/10/06 11:26:51;;;;;;;16.50;9.90;;;14.50;1.00;;;;;;5097750;28;20494;-46
2023/10/06 11:29:32;;;;;;;18.17;10.47;;;14.50;1.00;;;;;;5097798;28;20518;-46
2023/10/06 11:32:00;;;;;;;17.70;9.87;;;14.40;74.80;;;;;;5097164;28;20512;-47
2023/10/06 11:34:26;;;;;;;17.03;10.57;;;14.50;99.90;;;;;;5096965;28;20407;-46
2023/10/06 11:36:58;;;;;;;24.20;10.57;;;14.60;99.90;;;;;;5096713;28;20429;-47
2023/10/06 11:39:29;;;;;;;15.20;10.27;;;14.60;99.90;;;;;;5096967;28;20169;-46
2023/10/06 11:42:23;;;;;;;15.83;10.13;;;14.60;99.90;;;;;;5096874;28;20448;-46
2023/10/06 11:44:52;;;;;;;18.60;9.10;;;14.70;99.90;;;;;;5096704;28;20424;-46
2023/10/06 11:47:37;;;;;;;19.50;9.50;;;14.70;99.90;;;;;;5096945;28;20415;-46
2023/10/06 11:50:04;;;;;;;19.17;10.57;;;14.70;27.90;;;;;;5096701;28;20442;-47
2023/10/06 11:52:30;;;;;;;16.53;9.70;;;14.80;9.30;;;;;;5096254;28;20433;-48
2023/10/06 11:54:58;;;;;;;14.73;9.47;;;14.80;1.10;;;;;;5096365;28;20472;-47
2023/10/06 11:57:47;;;;;;;15.03;9.90;;;14.90;48.70;;;;;;5096480;28;20178;-47
2023/10/06 12:00:17;;;;;;;14.13;9.77;;;14.90;1.00;;;;;;5096401;28;20481;-47
2023/10/06 12:02:49;;;;;;;18.40;9.97;;;14.90;1.00;;;;;;5096790;28;20420;-47
2023/10/06 12:05:18;;;;;;;19.57;9.53;;;14.80;1.00;;;;;;5096802;28;20416;-47
2023/10/06 12:07:45;;;;;;;18.47;9.67;;;14.90;1.00;;;;;;5096296;28;20893;-47
2023/10/06 12:10:11;;;;;;;17.20;9.20;;;14.90;1.00;;;;;;5095428;28;20463;-46
2023/10/06 12:12:37;;;;;;;14.33;9.50;;;14.90;1.00;;;;;;5095114;28;20450;-47
2023/10/06 12:15:02;;;;;;;18.60;9.97;;;14.90;1.00;;;;;;5095738;28;20407;-49
2023/10/06 12:17:30;;;;;;;26.67;11.50;;;14.90;1.00;;;;;;5095942;28;20194;-47
2023/10/06 12:19:55;;;;;;;13.73;9.97;;;15.00;99.90;;;;;;5096283;28;20238;-46
2023/10/06 12:22:22;;;;;;;14.43;8.93;;;15.00;1.00;;;;;;5096296;28;20791;-47
2023/10/06 12:24:48;;;;;;;15.50;9.20;;;15.10;1.00;;;;;;5095980;28;20252;-46
2023/10/06 12:27:17;;;;;;;19.13;9.90;;;15.10;1.00;;;;;;5096106;28;20761;-48
2023/10/06 12:29:44;;;;;;;14.53;8.47;;;15.10;99.90;;;;;;5095404;28;20209;-48
2023/10/06 12:32:10;;;;;;;10.90;8.43;;;15.20;1.00;;;;;;5095318;28;20915;-47
2023/10/06 12:34:36;;;;;;;19.77;9.40;;;15.20;99.90;;;;;;5095009;28;20408;-46
2023/10/06 12:37:03;;;;;;;16.73;9.37;;;15.30;1.00;;;;;;5095966;28;20472;-47
2023/10/06 12:39:34;;;;;;;16.33;8.83;;;15.40;99.90;;;;;;5095717;28;20702;-47
2023/10/06 12:42:01;;;;;;;16.27;8.97;;;15.50;99.90;;;;;;5095327;28;20900;-47
2023/10/06 12:44:27;;;;;;;13.20;8.10;;;15.70;99.90;;;;;;5095937;28;20509;-47
2023/10/06 12:46:56;;;;;;;13.47;8.30;;;15.80;1.00;;;;;;5095477;28;20419;-47
2023/10/06 12:49:23;;;;;;;12.03;7.47;;;15.90;99.90;;;;;;5095530;28;20963;-48
2023/10/06 12:51:49;;;;;;;14.40;8.47;;;15.80;8.10;;;;;;5095113;28;20919;-48
2023/10/06 12:54:15;;;;;;;14.00;8.63;;;15.90;1.00;;;;;;5095157;28;20426;-49
2023/10/06 12:56:44;;;;;;;15.50;7.73;;;15.90;99.90;;;;;;5095107;28;20504;-49
2023/10/06 12:59:13;;;;;;;13.47;7.80;;;15.90;99.90;;;;;;5095474;28;20186;-48
2023/10/06 13:01:39;;;;;;;14.63;7.30;;;16.10;99.90;;;;;;5095632;28;20404;-47
2023/10/06 13:04:08;;;;;;;13.10;6.80;;;16.20;1.00;;;;;;5095434;28;20477;-48
2023/10/06 13:06:35;;;;;;;14.37;7.37;;;16.30;1.00;;;;;;5095278;28;20213;-48